sensor_id;sensor_type;location;lat;lon;timestamp;temperature;humidity
27544;DHT22;17996;51.056;3.656;2022-07-29T00:00:06;20.40;94.30
27544;DHT22;17996;51.056;3.656;2022-07-29T00:02:32;20.30;94.30
27544;DHT22;17996;51.056;3.656;2022-07-29T00:04:58;20.30;94.40
27544;DHT22;17996;51.056;3.656;2022-07-29T00:07:23;20.30;94.60
27544;DHT22;17996;51.056;3.656;2022-07-29T00:09:49;20.30;94.60
27544;DHT22;17996;51.056;3.656;2022-07-29T00:12:15;20.20;94.90
27544;DHT22;17996;51.056;3.656;2022-07-29T00:14:41;20.20;94.60
27544;DHT22;17996;51.056;3.656;2022-07-29T00:17:06;20.10;94.70
27544;DHT22;17996;51.056;3.656;2022-07-29T00:19:32;20.10;94.90
27544;DHT22;17996;51.056;3.656;2022-07-29T00:21:59;20.00;95.00
27544;DHT22;17996;51.056;3.656;2022-07-29T00:24:25;20.00;95.10
27544;DHT22;17996;51.056;3.656;2022-07-29T00:26:51;20.00;95.20
27544;DHT22;17996;51.056;3.656;2022-07-29T00:29:17;20.00;95.20
27544;DHT22;17996;51.056;3.656;2022-07-29T00:31:43;20.00;95.30
27544;DHT22;17996;51.056;3.656;2022-07-29T00:34:09;19.90;95.40
27544;DHT22;17996;51.056;3.656;2022-07-29T00:36:55;19.90;95.50
27544;DHT22;17996;51.056;3.656;2022-07-29T00:39:21;19.90;95.70
27544;DHT22;17996;51.056;3.656;2022-07-29T00:41:46;19.80;95.80
27544;DHT22;17996;51.056;3.656;2022-07-29T00:44:12;19.80;95.90
27544;DHT22;17996;51.056;3.656;2022-07-29T00:46:38;19.80;96.00
27544;DHT22;17996;51.056;3.656;2022-07-29T00:49:03;19.80;96.10
27544;DHT22;17996;51.056;3.656;2022-07-29T00:51:30;19.70;96.30
27544;DHT22;17996;51.056;3.656;2022-07-29T00:53:56;19.70;96.40
27544;DHT22;17996;51.056;3.656;2022-07-29T00:56:22;19.70;96.50
27544;DHT22;17996;51.056;3.656;2022-07-29T00:58:48;19.70;96.30
27544;DHT22;17996;51.056;3.656;2022-07-29T01:01:16;19.70;96.30
27544;DHT22;17996;51.056;3.656;2022-07-29T01:03:41;19.70;96.20
27544;DHT22;17996;51.056;3.656;2022-07-29T01:06:07;19.60;96.20
27544;DHT22;17996;51.056;3.656;2022-07-29T01:08:33;19.60;96.20
27544;DHT22;17996;51.056;3.656;2022-07-29T01:11:00;19.60;96.30
27544;DHT22;17996;51.056;3.656;2022-07-29T01:13:26;19.60;96.40
27544;DHT22;17996;51.056;3.656;2022-07-29T01:16:06;19.50;96.70
27544;DHT22;17996;51.056;3.656;2022-07-29T01:18:34;19.50;97.20
27544;DHT22;17996;51.056;3.656;2022-07-29T01:29:21;19.30;97.50
27544;DHT22;17996;51.056;3.656;2022-07-29T01:34:44;19.20;97.80
27544;DHT22;17996;51.056;3.656;2022-07-29T01:39:56;19.10;98.10
27544;DHT22;17996;51.056;3.656;2022-07-29T01:42:43;19.10;98.30
27544;DHT22;17996;51.056;3.656;2022-07-29T01:45:17;19.00;98.40
27544;DHT22;17996;51.056;3.656;2022-07-29T01:48:02;18.90;98.50
27544;DHT22;17996;51.056;3.656;2022-07-29T01:50:36;18.90;98.60
27544;DHT22;17996;51.056;3.656;2022-07-29T01:53:06;18.80;98.80
27544;DHT22;17996;51.056;3.656;2022-07-29T01:55:38;18.80;99.00
27544;DHT22;17996;51.056;3.656;2022-07-29T01:58:05;18.70;99.10
27544;DHT22;17996;51.056;3.656;2022-07-29T02:00:32;18.70;99.40
27544;DHT22;17996;51.056;3.656;2022-07-29T02:03:05;18.70;99.40
27544;DHT22;17996;51.056;3.656;2022-07-29T02:05:33;18.60;99.50
27544;DHT22;17996;51.056;3.656;2022-07-29T02:08:01;18.60;99.70
27544;DHT22;17996;51.056;3.656;2022-07-29T02:10:29;18.60;99.80
27544;DHT22;17996;51.056;3.656;2022-07-29T02:12:57;18.60;99.80
27544;DHT22;17996;51.056;3.656;2022-07-29T02:15:25;18.60;99.90
27544;DHT22;17996;51.056;3.656;2022-07-29T02:17:58;18.60;99.90
27544;DHT22;17996;51.056;3.656;2022-07-29T02:20:26;18.60;99.90
27544;DHT22;17996;51.056;3.656;2022-07-29T02:22:54;18.50;99.90
27544;DHT22;17996;51.056;3.656;2022-07-29T02:25:22;18.50;99.90
27544;DHT22;17996;51.056;3.656;2022-07-29T02:27:50;18.50;99.90
27544;DHT22;17996;51.056;3.656;2022-07-29T02:30:17;18.40;99.90
27544;DHT22;17996;51.056;3.656;2022-07-29T02:32:45;18.40;99.90
27544;DHT22;17996;51.056;3.656;2022-07-29T02:35:13;18.40;99.90
27544;DHT22;17996;51.056;3.656;2022-07-29T02:37:40;18.40;99.90
27544;DHT22;17996;51.056;3.656;2022-07-29T02:40:10;18.40;99.90
27544;DHT22;17996;51.056;3.656;2022-07-29T02:42:37;18.30;99.90
27544;DHT22;17996;51.056;3.656;2022-07-29T02:45:05;18.30;99.90
27544;DHT22;17996;51.056;3.656;2022-07-29T02:47:37;18.20;99.90
27544;DHT22;17996;51.056;3.656;2022-07-29T02:50:33;18.10;99.90
27544;DHT22;17996;51.056;3.656;2022-07-29T02:53:12;18.10;99.90
27544;DHT22;17996;51.056;3.656;2022-07-29T02:56:10;18.10;99.90
27544;DHT22;17996;51.056;3.656;2022-07-29T02:58:39;18.10;99.90
27544;DHT22;17996;51.056;3.656;2022-07-29T03:01:15;18.00;99.90
27544;DHT22;17996;51.056;3.656;2022-07-29T03:03:44;18.00;99.90
27544;DHT22;17996;51.056;3.656;2022-07-29T03:06:12;18.00;99.90
27544;DHT22;17996;51.056;3.656;2022-07-29T03:08:39;17.90;99.90
27544;DHT22;17996;51.056;3.656;2022-07-29T03:11:05;17.90;99.90
27544;DHT22;17996;51.056;3.656;2022-07-29T03:13:32;17.90;99.90
27544;DHT22;17996;51.056;3.656;2022-07-29T03:15:59;17.90;99.90
27544;DHT22;17996;51.056;3.656;2022-07-29T03:18:25;17.90;99.90
27544;DHT22;17996;51.056;3.656;2022-07-29T03:20:51;17.90;99.90
27544;DHT22;17996;51.056;3.656;2022-07-29T03:23:20;17.80;99.90
27544;DHT22;17996;51.056;3.656;2022-07-29T03:25:48;17.80;99.90
27544;DHT22;17996;51.056;3.656;2022-07-29T03:28:14;17.80;99.90
27544;DHT22;17996;51.056;3.656;2022-07-29T03:30:40;17.80;99.90
27544;DHT22;17996;51.056;3.656;2022-07-29T03:33:06;17.80;99.90
27544;DHT22;17996;51.056;3.656;2022-07-29T03:35:32;17.80;99.90
27544;DHT22;17996;51.056;3.656;2022-07-29T03:37:58;17.80;99.90
27544;DHT22;17996;51.056;3.656;2022-07-29T03:40:43;17.80;99.90
27544;DHT22;17996;51.056;3.656;2022-07-29T03:43:11;17.80;99.90
27544;DHT22;17996;51.056;3.656;2022-07-29T03:45:39;17.70;99.90
27544;DHT22;17996;51.056;3.656;2022-07-29T03:48:10;17.70;99.90
27544;DHT22;17996;51.056;3.656;2022-07-29T03:50:38;17.70;99.90
27544;DHT22;17996;51.056;3.656;2022-07-29T03:53:04;17.60;99.90
27544;DHT22;17996;51.056;3.656;2022-07-29T03:55:36;17.60;99.90
27544;DHT22;17996;51.056;3.656;2022-07-29T03:58:03;17.60;99.90
27544;DHT22;17996;51.056;3.656;2022-07-29T04:00:29;17.50;99.90
27544;DHT22;17996;51.056;3.656;2022-07-29T04:02:56;17.60;99.90
27544;DHT22;17996;51.056;3.656;2022-07-29T04:05:22;17.60;99.90
27544;DHT22;17996;51.056;3.656;2022-07-29T04:07:48;17.50;99.90
27544;DHT22;17996;51.056;3.656;2022-07-29T04:10:15;17.50;99.90
27544;DHT22;17996;51.056;3.656;2022-07-29T04:12:42;17.50;99.90
27544;DHT22;17996;51.056;3.656;2022-07-29T04:15:08;17.40;99.90
27544;DHT22;17996;51.056;3.656;2022-07-29T04:17:34;17.40;99.90
27544;DHT22;17996;51.056;3.656;2022-07-29T04:20:00;17.30;99.90
27544;DHT22;17996;51.056;3.656;2022-07-29T04:22:26;17.30;99.90
27544;DHT22;17996;51.056;3.656;2022-07-29T04:24:51;17.20;99.90
27544;DHT22;17996;51.056;3.656;2022-07-29T04:27:17;17.20;99.90
27544;DHT22;17996;51.056;3.656;2022-07-29T04:29:42;17.20;99.90
27544;DHT22;17996;51.056;3.656;2022-07-29T04:32:08;17.20;99.90
27544;DHT22;17996;51.056;3.656;2022-07-29T04:34:34;17.10;99.90
27544;DHT22;17996;51.056;3.656;2022-07-29T04:36:59;17.10;99.90
27544;DHT22;17996;51.056;3.656;2022-07-29T04:39:25;17.20;99.90
27544;DHT22;17996;51.056;3.656;2022-07-29T04:41:51;17.20;99.90
27544;DHT22;17996;51.056;3.656;2022-07-29T04:44:17;17.20;99.90
27544;DHT22;17996;51.056;3.656;2022-07-29T04:46:43;17.20;99.90
27544;DHT22;17996;51.056;3.656;2022-07-29T04:49:09;17.40;99.90
27544;DHT22;17996;51.056;3.656;2022-07-29T04:51:34;17.20;99.90
27544;DHT22;17996;51.056;3.656;2022-07-29T04:54:00;17.20;99.90
27544;DHT22;17996;51.056;3.656;2022-07-29T04:56:26;17.20;99.90
27544;DHT22;17996;51.056;3.656;2022-07-29T04:58:52;17.20;99.90
27544;DHT22;17996;51.056;3.656;2022-07-29T05:01:18;17.30;99.90
27544;DHT22;17996;51.056;3.656;2022-07-29T05:03:44;17.30;99.90
27544;DHT22;17996;51.056;3.656;2022-07-29T05:06:10;17.30;99.90
27544;DHT22;17996;51.056;3.656;2022-07-29T05:08:36;17.30;99.90
27544;DHT22;17996;51.056;3.656;2022-07-29T05:11:02;17.30;99.90
27544;DHT22;17996;51.056;3.656;2022-07-29T05:13:29;17.30;99.90
27544;DHT22;17996;51.056;3.656;2022-07-29T05:15:54;17.30;99.90
27544;DHT22;17996;51.056;3.656;2022-07-29T05:18:20;17.30;99.90
27544;DHT22;17996;51.056;3.656;2022-07-29T05:20:46;17.30;99.90
27544;DHT22;17996;51.056;3.656;2022-07-29T05:23:11;17.40;99.90
27544;DHT22;17996;51.056;3.656;2022-07-29T05:25:40;17.50;99.90
27544;DHT22;17996;51.056;3.656;2022-07-29T05:28:05;17.40;99.90
27544;DHT22;17996;51.056;3.656;2022-07-29T05:30:31;17.40;99.90
27544;DHT22;17996;51.056;3.656;2022-07-29T05:32:57;17.50;99.90
27544;DHT22;17996;51.056;3.656;2022-07-29T05:35:23;17.50;99.90
27544;DHT22;17996;51.056;3.656;2022-07-29T05:37:48;17.50;99.90
27544;DHT22;17996;51.056;3.656;2022-07-29T05:40:14;17.50;99.90
27544;DHT22;17996;51.056;3.656;2022-07-29T05:42:40;17.60;99.90
27544;DHT22;17996;51.056;3.656;2022-07-29T05:45:06;17.70;99.90
27544;DHT22;17996;51.056;3.656;2022-07-29T05:47:31;17.60;99.90
27544;DHT22;17996;51.056;3.656;2022-07-29T05:49:57;17.70;99.90
27544;DHT22;17996;51.056;3.656;2022-07-29T05:52:23;17.70;99.90
27544;DHT22;17996;51.056;3.656;2022-07-29T05:54:49;17.80;99.90
27544;DHT22;17996;51.056;3.656;2022-07-29T05:57:22;17.80;99.90
27544;DHT22;17996;51.056;3.656;2022-07-29T05:59:49;17.90;99.90
27544;DHT22;17996;51.056;3.656;2022-07-29T06:02:16;17.90;99.90
27544;DHT22;17996;51.056;3.656;2022-07-29T06:04:42;18.00;99.90
27544;DHT22;17996;51.056;3.656;2022-07-29T06:07:08;18.00;99.90
27544;DHT22;17996;51.056;3.656;2022-07-29T06:09:34;18.00;99.90
27544;DHT22;17996;51.056;3.656;2022-07-29T06:12:00;18.10;99.90
27544;DHT22;17996;51.056;3.656;2022-07-29T06:14:28;18.10;99.90
27544;DHT22;17996;51.056;3.656;2022-07-29T06:16:54;18.20;99.90
27544;DHT22;17996;51.056;3.656;2022-07-29T06:19:19;18.20;99.90
27544;DHT22;17996;51.056;3.656;2022-07-29T06:21:46;18.20;99.90
27544;DHT22;17996;51.056;3.656;2022-07-29T06:24:13;18.30;99.90
27544;DHT22;17996;51.056;3.656;2022-07-29T06:26:39;18.30;99.90
27544;DHT22;17996;51.056;3.656;2022-07-29T06:29:06;18.40;99.90
27544;DHT22;17996;51.056;3.656;2022-07-29T06:31:32;18.40;99.90
27544;DHT22;17996;51.056;3.656;2022-07-29T06:33:57;18.40;99.90
27544;DHT22;17996;51.056;3.656;2022-07-29T06:36:23;18.40;99.90
27544;DHT22;17996;51.056;3.656;2022-07-29T06:38:49;18.50;99.90
27544;DHT22;17996;51.056;3.656;2022-07-29T06:41:14;18.50;99.90
27544;DHT22;17996;51.056;3.656;2022-07-29T06:43:42;18.60;99.90
27544;DHT22;17996;51.056;3.656;2022-07-29T06:46:11;18.70;99.90
27544;DHT22;17996;51.056;3.656;2022-07-29T06:48:37;18.70;99.90
27544;DHT22;17996;51.056;3.656;2022-07-29T06:51:04;18.80;99.90
27544;DHT22;17996;51.056;3.656;2022-07-29T06:53:31;18.80;99.90
27544;DHT22;17996;51.056;3.656;2022-07-29T06:55:58;18.90;99.90
27544;DHT22;17996;51.056;3.656;2022-07-29T06:58:25;19.00;99.90
27544;DHT22;17996;51.056;3.656;2022-07-29T07:00:51;19.00;99.90
27544;DHT22;17996;51.056;3.656;2022-07-29T07:03:17;19.10;99.90
27544;DHT22;17996;51.056;3.656;2022-07-29T07:05:44;19.10;99.90
27544;DHT22;17996;51.056;3.656;2022-07-29T07:08:10;19.20;99.90
27544;DHT22;17996;51.056;3.656;2022-07-29T07:10:36;19.20;99.90
27544;DHT22;17996;51.056;3.656;2022-07-29T07:13:02;19.20;99.90
27544;DHT22;17996;51.056;3.656;2022-07-29T07:15:28;19.30;99.90
27544;DHT22;17996;51.056;3.656;2022-07-29T07:17:54;19.30;99.90
27544;DHT22;17996;51.056;3.656;2022-07-29T07:20:20;19.40;99.90
27544;DHT22;17996;51.056;3.656;2022-07-29T07:22:45;19.40;99.90
27544;DHT22;17996;51.056;3.656;2022-07-29T07:25:12;19.40;99.90
27544;DHT22;17996;51.056;3.656;2022-07-29T07:27:37;19.40;99.90
27544;DHT22;17996;51.056;3.656;2022-07-29T07:30:04;19.40;99.90
27544;DHT22;17996;51.056;3.656;2022-07-29T07:32:34;19.50;99.90
27544;DHT22;17996;51.056;3.656;2022-07-29T07:35:01;19.50;99.90
27544;DHT22;17996;51.056;3.656;2022-07-29T07:37:26;19.60;99.90
27544;DHT22;17996;51.056;3.656;2022-07-29T07:39:52;19.60;99.90
27544;DHT22;17996;51.056;3.656;2022-07-29T07:42:19;19.70;99.90
27544;DHT22;17996;51.056;3.656;2022-07-29T07:44:45;19.70;99.90
27544;DHT22;17996;51.056;3.656;2022-07-29T07:47:12;19.70;99.90
27544;DHT22;17996;51.056;3.656;2022-07-29T07:49:38;19.80;99.90
27544;DHT22;17996;51.056;3.656;2022-07-29T07:52:04;19.80;99.90
27544;DHT22;17996;51.056;3.656;2022-07-29T07:54:31;19.90;99.90
27544;DHT22;17996;51.056;3.656;2022-07-29T07:56:56;19.90;99.90
27544;DHT22;17996;51.056;3.656;2022-07-29T07:59:22;20.00;99.90
27544;DHT22;17996;51.056;3.656;2022-07-29T08:01:48;20.00;99.90
27544;DHT22;17996;51.056;3.656;2022-07-29T08:04:14;20.10;99.90
27544;DHT22;17996;51.056;3.656;2022-07-29T08:06:40;20.10;99.90
27544;DHT22;17996;51.056;3.656;2022-07-29T08:09:05;20.10;99.90
27544;DHT22;17996;51.056;3.656;2022-07-29T08:11:32;20.20;99.90
27544;DHT22;17996;51.056;3.656;2022-07-29T08:13:58;20.20;99.90
27544;DHT22;17996;51.056;3.656;2022-07-29T08:16:24;20.20;99.90
27544;DHT22;17996;51.056;3.656;2022-07-29T08:18:51;20.30;99.90
27544;DHT22;17996;51.056;3.656;2022-07-29T08:21:17;20.40;99.90
27544;DHT22;17996;51.056;3.656;2022-07-29T08:23:45;20.40;99.90
27544;DHT22;17996;51.056;3.656;2022-07-29T08:26:15;20.40;99.90
27544;DHT22;17996;51.056;3.656;2022-07-29T08:28:42;20.40;99.90
27544;DHT22;17996;51.056;3.656;2022-07-29T08:31:11;20.50;99.90
27544;DHT22;17996;51.056;3.656;2022-07-29T08:33:37;20.60;99.90
27544;DHT22;17996;51.056;3.656;2022-07-29T08:36:04;20.60;99.90
27544;DHT22;17996;51.056;3.656;2022-07-29T08:38:30;20.60;99.90
27544;DHT22;17996;51.056;3.656;2022-07-29T08:40:55;20.60;99.90
27544;DHT22;17996;51.056;3.656;2022-07-29T08:43:21;20.70;99.90
27544;DHT22;17996;51.056;3.656;2022-07-29T08:45:49;20.70;99.90
27544;DHT22;17996;51.056;3.656;2022-07-29T08:48:23;20.70;99.90
27544;DHT22;17996;51.056;3.656;2022-07-29T08:50:54;20.70;99.90
27544;DHT22;17996;51.056;3.656;2022-07-29T08:53:21;20.70;99.90
27544;DHT22;17996;51.056;3.656;2022-07-29T08:55:49;20.80;99.90
27544;DHT22;17996;51.056;3.656;2022-07-29T08:58:16;20.90;99.90
27544;DHT22;17996;51.056;3.656;2022-07-29T09:00:45;21.00;99.90
27544;DHT22;17996;51.056;3.656;2022-07-29T09:03:15;21.10;99.90
27544;DHT22;17996;51.056;3.656;2022-07-29T09:05:47;21.10;99.90
27544;DHT22;17996;51.056;3.656;2022-07-29T09:08:14;21.10;99.90
27544;DHT22;17996;51.056;3.656;2022-07-29T09:10:40;21.10;99.90
27544;DHT22;17996;51.056;3.656;2022-07-29T09:13:05;21.20;99.90
27544;DHT22;17996;51.056;3.656;2022-07-29T09:15:32;21.20;99.90
27544;DHT22;17996;51.056;3.656;2022-07-29T09:17:59;21.30;99.90
27544;DHT22;17996;51.056;3.656;2022-07-29T09:20:25;21.40;99.90
27544;DHT22;17996;51.056;3.656;2022-07-29T09:22:52;21.40;99.90
27544;DHT22;17996;51.056;3.656;2022-07-29T09:25:35;21.50;99.90
27544;DHT22;17996;51.056;3.656;2022-07-29T09:28:12;21.60;99.90
27544;DHT22;17996;51.056;3.656;2022-07-29T09:30:56;21.60;99.90
27544;DHT22;17996;51.056;3.656;2022-07-29T09:33:32;21.70;99.90
27544;DHT22;17996;51.056;3.656;2022-07-29T09:36:06;21.70;99.90
27544;DHT22;17996;51.056;3.656;2022-07-29T09:38:32;21.70;99.90
27544;DHT22;17996;51.056;3.656;2022-07-29T09:40:59;21.80;99.90
27544;DHT22;17996;51.056;3.656;2022-07-29T09:43:25;21.80;99.90
27544;DHT22;17996;51.056;3.656;2022-07-29T09:45:51;21.90;99.90
27544;DHT22;17996;51.056;3.656;2022-07-29T09:48:19;21.90;99.90
27544;DHT22;17996;51.056;3.656;2022-07-29T09:50:46;21.90;99.90
27544;DHT22;17996;51.056;3.656;2022-07-29T09:53:36;22.00;99.90
27544;DHT22;17996;51.056;3.656;2022-07-29T09:56:04;22.00;99.90
27544;DHT22;17996;51.056;3.656;2022-07-29T09:58:30;22.00;99.90
27544;DHT22;17996;51.056;3.656;2022-07-29T10:00:59;22.10;99.90
27544;DHT22;17996;51.056;3.656;2022-07-29T10:03:25;22.20;98.90
27544;DHT22;17996;51.056;3.656;2022-07-29T10:06:10;22.20;97.70
27544;DHT22;17996;51.056;3.656;2022-07-29T10:08:37;22.30;97.60
27544;DHT22;17996;51.056;3.656;2022-07-29T10:11:14;22.30;97.90
27544;DHT22;17996;51.056;3.656;2022-07-29T10:13:41;22.40;98.00
27544;DHT22;17996;51.056;3.656;2022-07-29T10:16:07;22.40;98.00
27544;DHT22;17996;51.056;3.656;2022-07-29T10:18:34;22.40;96.90
27544;DHT22;17996;51.056;3.656;2022-07-29T10:21:00;22.40;96.30
27544;DHT22;17996;51.056;3.656;2022-07-29T10:23:29;22.40;96.50
27544;DHT22;17996;51.056;3.656;2022-07-29T10:25:55;22.50;97.20
27544;DHT22;17996;51.056;3.656;2022-07-29T10:28:21;22.50;96.10
27544;DHT22;17996;51.056;3.656;2022-07-29T10:30:49;22.60;96.70
27544;DHT22;17996;51.056;3.656;2022-07-29T10:35:56;22.80;96.60
27544;DHT22;17996;51.056;3.656;2022-07-29T10:44:09;23.10;96.20
27544;DHT22;17996;51.056;3.656;2022-07-29T10:46:40;23.20;96.10
27544;DHT22;17996;51.056;3.656;2022-07-29T10:49:15;23.40;95.80
27544;DHT22;17996;51.056;3.656;2022-07-29T10:54:43;23.50;93.60
27544;DHT22;17996;51.056;3.656;2022-07-29T10:59:48;23.60;92.70
27544;DHT22;17996;51.056;3.656;2022-07-29T11:07:32;23.80;92.30
27544;DHT22;17996;51.056;3.656;2022-07-29T11:15:12;24.10;91.70
27544;DHT22;17996;51.056;3.656;2022-07-29T11:20:44;24.20;91.50
27544;DHT22;17996;51.056;3.656;2022-07-29T11:23:30;24.20;90.80
27544;DHT22;17996;51.056;3.656;2022-07-29T11:26:20;24.30;90.40
27544;DHT22;17996;51.056;3.656;2022-07-29T11:31:39;24.00;90.00
27544;DHT22;17996;51.056;3.656;2022-07-29T11:39:47;24.10;90.10
27544;DHT22;17996;51.056;3.656;2022-07-29T11:45:05;24.30;89.60
27544;DHT22;17996;51.056;3.656;2022-07-29T11:47:39;24.30;89.30
27544;DHT22;17996;51.056;3.656;2022-07-29T11:50:08;24.40;89.30
27544;DHT22;17996;51.056;3.656;2022-07-29T11:52:35;24.40;89.60
27544;DHT22;17996;51.056;3.656;2022-07-29T11:55:04;24.30;86.50
27544;DHT22;17996;51.056;3.656;2022-07-29T11:57:31;24.40;88.90
27544;DHT22;17996;51.056;3.656;2022-07-29T11:59:57;24.40;87.70
27544;DHT22;17996;51.056;3.656;2022-07-29T12:02:24;24.40;88.40
27544;DHT22;17996;51.056;3.656;2022-07-29T12:04:53;24.40;87.20
27544;DHT22;17996;51.056;3.656;2022-07-29T12:07:34;24.50;88.20
27544;DHT22;17996;51.056;3.656;2022-07-29T12:10:00;24.70;88.10
27544;DHT22;17996;51.056;3.656;2022-07-29T12:12:26;24.60;86.20
27544;DHT22;17996;51.056;3.656;2022-07-29T12:14:52;24.60;85.40
27544;DHT22;17996;51.056;3.656;2022-07-29T12:19:59;24.60;85.50
27544;DHT22;17996;51.056;3.656;2022-07-29T12:22:31;24.50;84.70
27544;DHT22;17996;51.056;3.656;2022-07-29T12:25:17;24.50;85.70
27544;DHT22;17996;51.056;3.656;2022-07-29T12:27:43;24.70;86.60
27544;DHT22;17996;51.056;3.656;2022-07-29T12:30:11;24.80;86.00
27544;DHT22;17996;51.056;3.656;2022-07-29T12:35:18;25.30;86.20
27544;DHT22;17996;51.056;3.656;2022-07-29T12:37:47;25.40;85.20
27544;DHT22;17996;51.056;3.656;2022-07-29T12:40:16;25.50;85.10
27544;DHT22;17996;51.056;3.656;2022-07-29T12:43:18;25.50;85.10
27544;DHT22;17996;51.056;3.656;2022-07-29T12:45:47;25.40;86.40
27544;DHT22;17996;51.056;3.656;2022-07-29T12:48:13;25.30;86.50
27544;DHT22;17996;51.056;3.656;2022-07-29T12:51:00;25.30;87.10
27544;DHT22;17996;51.056;3.656;2022-07-29T12:53:26;25.10;84.90
27544;DHT22;17996;51.056;3.656;2022-07-29T12:55:54;25.10;85.50
27544;DHT22;17996;51.056;3.656;2022-07-29T12:58:38;25.10;85.50
27544;DHT22;17996;51.056;3.656;2022-07-29T13:01:16;25.30;87.00
27544;DHT22;17996;51.056;3.656;2022-07-29T13:03:52;25.40;86.70
27544;DHT22;17996;51.056;3.656;2022-07-29T13:06:31;25.60;87.30
27544;DHT22;17996;51.056;3.656;2022-07-29T13:13:58;25.60;83.70
27544;DHT22;17996;51.056;3.656;2022-07-29T13:16:24;25.40;83.60
27544;DHT22;17996;51.056;3.656;2022-07-29T13:19:03;25.40;84.60
27544;DHT22;17996;51.056;3.656;2022-07-29T13:21:29;25.40;83.90
27544;DHT22;17996;51.056;3.656;2022-07-29T13:23:54;25.60;84.50
27544;DHT22;17996;51.056;3.656;2022-07-29T13:26:20;25.70;83.60
27544;DHT22;17996;51.056;3.656;2022-07-29T13:28:46;25.90;83.70
27544;DHT22;17996;51.056;3.656;2022-07-29T13:31:12;26.20;83.50
27544;DHT22;17996;51.056;3.656;2022-07-29T13:33:37;26.30;82.30
27544;DHT22;17996;51.056;3.656;2022-07-29T13:36:03;26.40;81.40
27544;DHT22;17996;51.056;3.656;2022-07-29T13:38:29;26.30;80.70
27544;DHT22;17996;51.056;3.656;2022-07-29T13:40:54;26.30;81.00
27544;DHT22;17996;51.056;3.656;2022-07-29T13:43:20;26.30;80.90
27544;DHT22;17996;51.056;3.656;2022-07-29T13:45:46;26.30;80.90
27544;DHT22;17996;51.056;3.656;2022-07-29T13:48:11;26.50;82.10
27544;DHT22;17996;51.056;3.656;2022-07-29T13:50:37;26.50;81.20
27544;DHT22;17996;51.056;3.656;2022-07-29T13:53:02;26.70;82.30
27544;DHT22;17996;51.056;3.656;2022-07-29T13:55:29;26.60;80.20
27544;DHT22;17996;51.056;3.656;2022-07-29T13:57:55;26.60;79.90
27544;DHT22;17996;51.056;3.656;2022-07-29T14:00:21;26.70;81.30
27544;DHT22;17996;51.056;3.656;2022-07-29T14:02:46;27.00;83.20
27544;DHT22;17996;51.056;3.656;2022-07-29T14:05:12;27.20;80.80
27544;DHT22;17996;51.056;3.656;2022-07-29T14:07:38;27.40;82.50
27544;DHT22;17996;51.056;3.656;2022-07-29T14:10:05;27.70;83.70
27544;DHT22;17996;51.056;3.656;2022-07-29T14:12:31;27.80;81.50
27544;DHT22;17996;51.056;3.656;2022-07-29T14:14:57;27.60;79.60
27544;DHT22;17996;51.056;3.656;2022-07-29T14:17:23;27.50;78.40
27544;DHT22;17996;51.056;3.656;2022-07-29T14:19:49;27.40;79.10
27544;DHT22;17996;51.056;3.656;2022-07-29T14:22:14;27.30;76.20
27544;DHT22;17996;51.056;3.656;2022-07-29T14:24:40;27.30;79.10
27544;DHT22;17996;51.056;3.656;2022-07-29T14:27:07;27.70;79.60
27544;DHT22;17996;51.056;3.656;2022-07-29T14:29:33;28.30;81.10
27544;DHT22;17996;51.056;3.656;2022-07-29T14:31:59;28.60;77.20
27544;DHT22;17996;51.056;3.656;2022-07-29T14:34:25;28.70;74.60
27544;DHT22;17996;51.056;3.656;2022-07-29T14:36:50;28.80;74.70
27544;DHT22;17996;51.056;3.656;2022-07-29T14:39:16;28.80;74.20
27544;DHT22;17996;51.056;3.656;2022-07-29T14:41:42;29.00;73.60
27544;DHT22;17996;51.056;3.656;2022-07-29T14:44:09;29.50;73.40
27544;DHT22;17996;51.056;3.656;2022-07-29T14:46:34;29.90;72.50
27544;DHT22;17996;51.056;3.656;2022-07-29T14:49:00;30.30;71.00
27544;DHT22;17996;51.056;3.656;2022-07-29T14:51:26;30.70;71.90
27544;DHT22;17996;51.056;3.656;2022-07-29T14:53:52;31.20;70.40
27544;DHT22;17996;51.056;3.656;2022-07-29T14:56:18;31.30;69.50
27544;DHT22;17996;51.056;3.656;2022-07-29T14:58:43;31.20;67.80
27544;DHT22;17996;51.056;3.656;2022-07-29T15:01:09;31.00;67.40
27544;DHT22;17996;51.056;3.656;2022-07-29T15:03:35;30.90;67.20
27544;DHT22;17996;51.056;3.656;2022-07-29T15:06:00;31.10;67.30
27544;DHT22;17996;51.056;3.656;2022-07-29T15:08:27;31.20;66.50
27544;DHT22;17996;51.056;3.656;2022-07-29T15:10:56;31.70;66.80
27544;DHT22;17996;51.056;3.656;2022-07-29T15:13:24;32.30;67.10
27544;DHT22;17996;51.056;3.656;2022-07-29T15:15:50;32.90;64.30
27544;DHT22;17996;51.056;3.656;2022-07-29T15:18:17;32.50;62.40
27544;DHT22;17996;51.056;3.656;2022-07-29T15:20:42;32.40;63.80
27544;DHT22;17996;51.056;3.656;2022-07-29T15:23:10;32.70;65.40
27544;DHT22;17996;51.056;3.656;2022-07-29T15:25:38;32.80;63.90
27544;DHT22;17996;51.056;3.656;2022-07-29T15:28:04;33.30;63.70
27544;DHT22;17996;51.056;3.656;2022-07-29T15:30:32;33.50;63.80
27544;DHT22;17996;51.056;3.656;2022-07-29T15:32:58;33.40;60.90
27544;DHT22;17996;51.056;3.656;2022-07-29T15:35:24;32.80;61.20
27544;DHT22;17996;51.056;3.656;2022-07-29T15:37:50;32.10;60.80
27544;DHT22;17996;51.056;3.656;2022-07-29T15:40:15;32.40;62.30
27544;DHT22;17996;51.056;3.656;2022-07-29T15:42:41;32.80;61.60
27544;DHT22;17996;51.056;3.656;2022-07-29T15:45:07;33.10;62.20
27544;DHT22;17996;51.056;3.656;2022-07-29T15:47:35;33.60;61.80
27544;DHT22;17996;51.056;3.656;2022-07-29T15:50:01;33.70;59.40
27544;DHT22;17996;51.056;3.656;2022-07-29T15:52:26;33.00;58.90
27544;DHT22;17996;51.056;3.656;2022-07-29T15:54:55;32.50;59.60
27544;DHT22;17996;51.056;3.656;2022-07-29T15:57:22;32.80;60.70
27544;DHT22;17996;51.056;3.656;2022-07-29T15:59:48;33.10;60.10
27544;DHT22;17996;51.056;3.656;2022-07-29T16:02:14;33.20;59.20
27544;DHT22;17996;51.056;3.656;2022-07-29T16:04:39;32.90;58.80
27544;DHT22;17996;51.056;3.656;2022-07-29T16:07:05;32.30;59.20
27544;DHT22;17996;51.056;3.656;2022-07-29T16:09:31;32.20;60.00
27544;DHT22;17996;51.056;3.656;2022-07-29T16:11:57;31.70;59.70
27544;DHT22;17996;51.056;3.656;2022-07-29T16:14:23;31.60;59.50
27544;DHT22;17996;51.056;3.656;2022-07-29T16:16:49;32.00;61.00
27544;DHT22;17996;51.056;3.656;2022-07-29T16:19:15;32.00;59.70
27544;DHT22;17996;51.056;3.656;2022-07-29T16:21:40;31.90;59.40
27544;DHT22;17996;51.056;3.656;2022-07-29T16:24:06;31.40;59.60
27544;DHT22;17996;51.056;3.656;2022-07-29T16:26:33;31.70;60.60
27544;DHT22;17996;51.056;3.656;2022-07-29T16:28:59;31.50;59.70
27544;DHT22;17996;51.056;3.656;2022-07-29T16:31:25;31.30;59.80
27544;DHT22;17996;51.056;3.656;2022-07-29T16:33:52;31.00;60.70
27544;DHT22;17996;51.056;3.656;2022-07-29T16:36:18;30.50;60.80